Terminal Aerodrome Forecast
Issued by NWS

Home | Current Version | Previous Version | Text Only | Print | Product List | Glossary On
Versions: 1 2 3 4 5 6 7 8 9 10 11 12 13 14 15 16 17 18 19 20 21 22 23 24 25 26 27 28 29 30 31 32 33 34 35 36 37 38 39 40 41 42 43 44
000
FTAK31 PANC 280017 AAA
TAFACV
TAF AMD
PACV 280017Z 2800/2824 VRB03KT 5SM -RA BR OVC007
      TEMPO 2800/2803 1SM -RA BR BKN004
     FM280600 VRB04KT 2SM -RA OVC004
     FM282100 VRB03KT 6SM -RA BKN008=

USA.gov is the U.S. government's official web portal to all federal, state and local government web resources and services.